sensor_id;sensor_type;location;lat;lon;timestamp;pressure;altitude;pressure_sealevel;temperature;humidity
26978;BME280;56314;48.088;11.642;2023-02-17T00:01:56;96285.97;;;8.28;45.25
26978;BME280;56314;48.088;11.642;2023-02-17T00:04:21;96287.06;;;8.24;44.89
26978;BME280;56314;48.088;11.642;2023-02-17T00:06:46;96279.38;;;8.21;45.09
26978;BME280;56314;48.088;11.642;2023-02-17T00:09:12;96275.16;;;8.18;45.46
26978;BME280;56314;48.088;11.642;2023-02-17T00:11:37;96276.75;;;8.21;45.48
26978;BME280;56314;48.088;11.642;2023-02-17T00:14:02;96283.81;;;8.19;45.04
26978;BME280;56314;48.088;11.642;2023-02-17T00:16:28;96288.13;;;8.20;44.96
26978;BME280;56314;48.088;11.642;2023-02-17T00:18:56;96286.44;;;8.19;45.22
26978;BME280;56314;48.088;11.642;2023-02-17T00:21:24;96288.06;;;8.21;44.68
26978;BME280;56314;48.088;11.642;2023-02-17T00:23:51;96283.00;;;8.18;45.17
26978;BME280;56314;48.088;11.642;2023-02-17T00:26:16;96280.63;;;8.13;45.19
26978;BME280;56314;48.088;11.642;2023-02-17T00:28:43;96279.78;;;8.13;45.14
26978;BME280;56314;48.088;11.642;2023-02-17T00:31:13;96280.69;;;8.12;45.57
26978;BME280;56314;48.088;11.642;2023-02-17T00:33:39;96275.56;;;8.10;45.42
26978;BME280;56314;48.088;11.642;2023-02-17T00:36:06;96278.25;;;8.09;45.52
26978;BME280;56314;48.088;11.642;2023-02-17T00:38:32;96275.41;;;8.13;45.24
26978;BME280;56314;48.088;11.642;2023-02-17T00:40:58;96271.41;;;8.06;45.39
26978;BME280;56314;48.088;11.642;2023-02-17T00:43:23;96275.94;;;8.02;45.91
26978;BME280;56314;48.088;11.642;2023-02-17T00:45:48;96281.72;;;8.09;45.81
26978;BME280;56314;48.088;11.642;2023-02-17T00:48:14;96269.91;;;8.18;45.44
26978;BME280;56314;48.088;11.642;2023-02-17T00:50:39;96274.53;;;8.13;45.33
26978;BME280;56314;48.088;11.642;2023-02-17T00:53:04;96278.31;;;8.07;45.91
26978;BME280;56314;48.088;11.642;2023-02-17T00:55:30;96275.81;;;8.06;45.63
26978;BME280;56314;48.088;11.642;2023-02-17T00:57:55;96280.25;;;8.04;45.55
26978;BME280;56314;48.088;11.642;2023-02-17T01:00:20;96277.50;;;8.07;46.07
26978;BME280;56314;48.088;11.642;2023-02-17T01:02:46;96278.16;;;8.10;45.63
26978;BME280;56314;48.088;11.642;2023-02-17T01:05:11;96277.25;;;8.11;44.94
26978;BME280;56314;48.088;11.642;2023-02-17T01:07:36;96274.72;;;8.10;45.61
26978;BME280;56314;48.088;11.642;2023-02-17T01:10:04;96272.84;;;8.12;45.22
26978;BME280;56314;48.088;11.642;2023-02-17T01:12:30;96272.53;;;8.18;45.07
26978;BME280;56314;48.088;11.642;2023-02-17T01:14:55;96275.47;;;8.12;45.21
26978;BME280;56314;48.088;11.642;2023-02-17T01:17:20;96271.34;;;8.08;45.38
26978;BME280;56314;48.088;11.642;2023-02-17T01:19:46;96273.81;;;8.11;45.27
26978;BME280;56314;48.088;11.642;2023-02-17T01:22:11;96279.44;;;8.03;45.81
26978;BME280;56314;48.088;11.642;2023-02-17T01:24:38;96275.03;;;8.04;45.87
26978;BME280;56314;48.088;11.642;2023-02-17T01:27:03;96269.13;;;8.00;46.16
26978;BME280;56314;48.088;11.642;2023-02-17T01:29:28;96268.50;;;7.95;46.58
26978;BME280;56314;48.088;11.642;2023-02-17T01:31:54;96270.28;;;7.94;46.09
26978;BME280;56314;48.088;11.642;2023-02-17T01:34:19;96265.38;;;7.88;46.65
26978;BME280;56314;48.088;11.642;2023-02-17T01:36:45;96268.22;;;7.83;46.12
26978;BME280;56314;48.088;11.642;2023-02-17T01:39:13;96266.97;;;7.75;46.85
26978;BME280;56314;48.088;11.642;2023-02-17T01:41:38;96259.19;;;7.73;46.50
26978;BME280;56314;48.088;11.642;2023-02-17T01:44:07;96260.19;;;7.70;46.71
26978;BME280;56314;48.088;11.642;2023-02-17T01:46:36;96264.06;;;7.63;46.80
26978;BME280;56314;48.088;11.642;2023-02-17T01:49:04;96264.34;;;7.57;46.80
26978;BME280;56314;48.088;11.642;2023-02-17T01:51:37;96262.59;;;7.58;46.94
26978;BME280;56314;48.088;11.642;2023-02-17T01:54:08;96262.91;;;7.51;47.48
26978;BME280;56314;48.088;11.642;2023-02-17T01:56:40;96259.38;;;7.52;47.00
26978;BME280;56314;48.088;11.642;2023-02-17T01:59:10;96259.38;;;7.52;47.21
26978;BME280;56314;48.088;11.642;2023-02-17T02:01:37;96259.38;;;7.52;47.60
26978;BME280;56314;48.088;11.642;2023-02-17T02:04:04;96260.38;;;7.50;47.47
26978;BME280;56314;48.088;11.642;2023-02-17T02:06:31;96255.91;;;7.52;48.08
26978;BME280;56314;48.088;11.642;2023-02-17T02:09:12;96250.59;;;7.53;47.39
26978;BME280;56314;48.088;11.642;2023-02-17T02:11:41;96245.97;;;7.59;47.70
26978;BME280;56314;48.088;11.642;2023-02-17T02:14:07;96247.91;;;7.55;48.37
26978;BME280;56314;48.088;11.642;2023-02-17T02:17:03;96247.91;;;7.55;48.83
26978;BME280;56314;48.088;11.642;2023-02-17T02:19:48;96248.69;;;7.57;49.45
26978;BME280;56314;48.088;11.642;2023-02-17T02:35:57;96246.16;;;7.55;49.01
26978;BME280;56314;48.088;11.642;2023-02-17T02:38:43;96259.28;;;7.54;48.24
26978;BME280;56314;48.088;11.642;2023-02-17T02:41:15;96245.97;;;7.59;49.13
26978;BME280;56314;48.088;11.642;2023-02-17T02:43:42;96258.97;;;7.60;48.41
26978;BME280;56314;48.088;11.642;2023-02-17T02:46:08;96258.75;;;7.65;49.89
26978;BME280;56314;48.088;11.642;2023-02-17T02:48:33;96254.69;;;7.59;49.29
26978;BME280;56314;48.088;11.642;2023-02-17T02:58:49;96258.13;;;7.60;51.13
26978;BME280;56314;48.088;11.642;2023-02-17T03:01:52;96252.06;;;7.59;50.11
26978;BME280;56314;48.088;11.642;2023-02-17T03:04:28;96253.75;;;7.60;50.54
26978;BME280;56314;48.088;11.642;2023-02-17T03:07:00;96245.59;;;7.66;49.96
26978;BME280;56314;48.088;11.642;2023-02-17T03:09:28;96243.75;;;7.68;49.16
26978;BME280;56314;48.088;11.642;2023-02-17T03:11:55;96240.09;;;7.71;49.12
26978;BME280;56314;48.088;11.642;2023-02-17T03:14:21;96238.94;;;7.77;49.90
26978;BME280;56314;48.088;11.642;2023-02-17T03:16:48;96233.66;;;7.78;49.94
26978;BME280;56314;48.088;11.642;2023-02-17T03:19:14;96233.25;;;7.86;49.55
26978;BME280;56314;48.088;11.642;2023-02-17T03:21:53;96237.56;;;7.87;49.42
26978;BME280;56314;48.088;11.642;2023-02-17T03:24:20;96234.69;;;7.92;48.67
26978;BME280;56314;48.088;11.642;2023-02-17T03:26:45;96227.63;;;7.94;48.76
26978;BME280;56314;48.088;11.642;2023-02-17T03:29:10;96230.03;;;7.97;48.67
26978;BME280;56314;48.088;11.642;2023-02-17T03:31:37;96224.75;;;7.98;48.69
26978;BME280;56314;48.088;11.642;2023-02-17T03:34:02;96227.28;;;8.00;48.48
26978;BME280;56314;48.088;11.642;2023-02-17T03:36:28;96226.47;;;8.15;47.16
26978;BME280;56314;48.088;11.642;2023-02-17T03:38:54;96219.44;;;8.16;47.39
26978;BME280;56314;48.088;11.642;2023-02-17T03:41:20;96213.69;;;8.25;46.83
26978;BME280;56314;48.088;11.642;2023-02-17T03:43:46;96220.63;;;8.26;46.30
26978;BME280;56314;48.088;11.642;2023-02-17T03:46:12;96221.38;;;8.28;46.88
26978;BME280;56314;48.088;11.642;2023-02-17T03:48:38;96222.97;;;8.31;46.78
26978;BME280;56314;48.088;11.642;2023-02-17T03:51:13;96216.91;;;8.30;46.99
26978;BME280;56314;48.088;11.642;2023-02-17T03:53:40;96215.06;;;8.32;46.75
26978;BME280;56314;48.088;11.642;2023-02-17T03:56:06;96206.88;;;8.39;46.56
26978;BME280;56314;48.088;11.642;2023-02-17T03:58:32;96216.34;;;8.41;46.48
26978;BME280;56314;48.088;11.642;2023-02-17T04:00:57;96206.59;;;8.43;45.98
26978;BME280;56314;48.088;11.642;2023-02-17T04:03:23;96211.09;;;8.41;46.03
26978;BME280;56314;48.088;11.642;2023-02-17T04:05:48;96212.69;;;8.44;45.83
26978;BME280;56314;48.088;11.642;2023-02-17T04:08:13;96208.16;;;8.47;46.19
26978;BME280;56314;48.088;11.642;2023-02-17T04:10:39;96203.06;;;8.44;45.86
26978;BME280;56314;48.088;11.642;2023-02-17T04:13:04;96206.38;;;8.48;46.48
26978;BME280;56314;48.088;11.642;2023-02-17T04:15:30;96210.63;;;8.51;46.00
26978;BME280;56314;48.088;11.642;2023-02-17T04:17:55;96211.94;;;8.58;46.02
26978;BME280;56314;48.088;11.642;2023-02-17T04:20:20;96205.53;;;8.63;45.68
26978;BME280;56314;48.088;11.642;2023-02-17T04:22:46;96204.84;;;8.60;46.07
26978;BME280;56314;48.088;11.642;2023-02-17T04:25:11;96205.19;;;8.70;45.15
26978;BME280;56314;48.088;11.642;2023-02-17T04:27:37;96198.44;;;8.66;45.25
26978;BME280;56314;48.088;11.642;2023-02-17T04:30:03;96201.16;;;8.64;45.46
26978;BME280;56314;48.088;11.642;2023-02-17T04:32:28;96195.81;;;8.66;45.71
26978;BME280;56314;48.088;11.642;2023-02-17T04:34:54;96196.31;;;8.72;45.27
26978;BME280;56314;48.088;11.642;2023-02-17T04:37:19;96194.34;;;8.76;45.25
26978;BME280;56314;48.088;11.642;2023-02-17T04:39:44;96191.47;;;8.81;45.13
26978;BME280;56314;48.088;11.642;2023-02-17T04:42:10;96199.59;;;8.76;45.38
26978;BME280;56314;48.088;11.642;2023-02-17T04:44:35;96195.88;;;8.80;45.23
26978;BME280;56314;48.088;11.642;2023-02-17T04:47:00;96195.03;;;8.80;45.49
26978;BME280;56314;48.088;11.642;2023-02-17T04:49:25;96195.03;;;8.80;45.05
26978;BME280;56314;48.088;11.642;2023-02-17T04:51:51;96194.50;;;8.89;45.22
26978;BME280;56314;48.088;11.642;2023-02-17T04:54:16;96193.59;;;8.90;45.03
26978;BME280;56314;48.088;11.642;2023-02-17T04:56:42;96189.50;;;9.00;45.19
26978;BME280;56314;48.088;11.642;2023-02-17T04:59:07;96188.28;;;9.06;44.62
26978;BME280;56314;48.088;11.642;2023-02-17T05:01:32;96183.13;;;9.04;44.33
26978;BME280;56314;48.088;11.642;2023-02-17T05:03:57;96182.59;;;9.14;44.51
26978;BME280;56314;48.088;11.642;2023-02-17T05:06:23;96173.50;;;9.05;44.56
26978;BME280;56314;48.088;11.642;2023-02-17T05:08:48;96178.47;;;9.09;44.46
26978;BME280;56314;48.088;11.642;2023-02-17T05:11:15;96169.50;;;9.14;43.92
26978;BME280;56314;48.088;11.642;2023-02-17T05:13:40;96170.16;;;9.17;44.22
26978;BME280;56314;48.088;11.642;2023-02-17T05:16:05;96165.00;;;9.16;44.33
26978;BME280;56314;48.088;11.642;2023-02-17T05:18:31;96152.94;;;9.28;43.97
26978;BME280;56314;48.088;11.642;2023-02-17T05:20:56;96160.22;;;9.22;44.16
26978;BME280;56314;48.088;11.642;2023-02-17T05:23:21;96154.44;;;9.17;44.20
26978;BME280;56314;48.088;11.642;2023-02-17T05:25:47;96158.00;;;9.16;43.90
26978;BME280;56314;48.088;11.642;2023-02-17T05:28:12;96153.19;;;9.08;44.46
26978;BME280;56314;48.088;11.642;2023-02-17T05:30:38;96155.81;;;9.08;44.78
26978;BME280;56314;48.088;11.642;2023-02-17T05:33:03;96148.06;;;9.07;44.58
26978;BME280;56314;48.088;11.642;2023-02-17T05:35:28;96159.47;;;9.06;45.22
26978;BME280;56314;48.088;11.642;2023-02-17T05:37:53;96158.44;;;9.08;44.94
26978;BME280;56314;48.088;11.642;2023-02-17T05:40:19;96158.75;;;9.18;44.41
26978;BME280;56314;48.088;11.642;2023-02-17T05:42:44;96155.00;;;9.22;43.84
26978;BME280;56314;48.088;11.642;2023-02-17T05:45:10;96161.56;;;9.30;43.48
26978;BME280;56314;48.088;11.642;2023-02-17T05:47:35;96155.28;;;9.32;43.60
26978;BME280;56314;48.088;11.642;2023-02-17T05:50:01;96171.13;;;9.31;43.85
26978;BME280;56314;48.088;11.642;2023-02-17T05:52:26;96171.94;;;9.31;44.11
26978;BME280;56314;48.088;11.642;2023-02-17T05:54:52;96170.72;;;9.22;44.22
26978;BME280;56314;48.088;11.642;2023-02-17T05:57:17;96166.41;;;9.21;44.08
26978;BME280;56314;48.088;11.642;2023-02-17T05:59:42;96165.41;;;9.24;43.83
26978;BME280;56314;48.088;11.642;2023-02-17T06:02:08;96166.50;;;9.20;43.82
26978;BME280;56314;48.088;11.642;2023-02-17T06:04:33;96164.50;;;9.09;44.11
26978;BME280;56314;48.088;11.642;2023-02-17T06:06:58;96165.75;;;9.18;44.26
26978;BME280;56314;48.088;11.642;2023-02-17T06:09:24;96170.91;;;9.19;43.94
26978;BME280;56314;48.088;11.642;2023-02-17T06:11:49;96168.22;;;9.35;43.71
26978;BME280;56314;48.088;11.642;2023-02-17T06:14:15;96168.56;;;9.29;43.67
26978;BME280;56314;48.088;11.642;2023-02-17T06:16:40;96174.41;;;9.34;43.46
26978;BME280;56314;48.088;11.642;2023-02-17T06:19:05;96167.66;;;9.30;43.73
26978;BME280;56314;48.088;11.642;2023-02-17T06:21:31;96180.56;;;9.33;43.38
26978;BME280;56314;48.088;11.642;2023-02-17T06:23:56;96178.78;;;9.34;43.74
26978;BME280;56314;48.088;11.642;2023-02-17T06:26:21;96173.72;;;9.45;43.74
26978;BME280;56314;48.088;11.642;2023-02-17T06:28:47;96183.75;;;9.53;43.68
26978;BME280;56314;48.088;11.642;2023-02-17T06:31:12;96185.25;;;9.43;44.35
26978;BME280;56314;48.088;11.642;2023-02-17T06:33:38;96181.69;;;9.44;44.24
26978;BME280;56314;48.088;11.642;2023-02-17T06:36:03;96179.38;;;9.39;44.95
26978;BME280;56314;48.088;11.642;2023-02-17T06:38:28;96184.31;;;9.44;45.16
26978;BME280;56314;48.088;11.642;2023-02-17T06:40:54;96190.97;;;9.49;45.96
26978;BME280;56314;48.088;11.642;2023-02-17T06:43:19;96200.53;;;9.50;48.49
26978;BME280;56314;48.088;11.642;2023-02-17T06:45:45;96195.75;;;9.43;50.72
26978;BME280;56314;48.088;11.642;2023-02-17T06:48:10;96200.22;;;9.40;49.66
26978;BME280;56314;48.088;11.642;2023-02-17T06:50:36;96196.03;;;9.38;51.21
26978;BME280;56314;48.088;11.642;2023-02-17T06:53:02;96186.19;;;9.42;50.65
26978;BME280;56314;48.088;11.642;2023-02-17T06:55:27;96189.66;;;9.42;50.02
26978;BME280;56314;48.088;11.642;2023-02-17T06:57:52;96193.50;;;9.36;50.56
26978;BME280;56314;48.088;11.642;2023-02-17T07:00:18;96186.47;;;9.37;50.68
26978;BME280;56314;48.088;11.642;2023-02-17T07:02:44;96185.16;;;9.44;50.07
26978;BME280;56314;48.088;11.642;2023-02-17T07:05:09;96187.31;;;9.52;50.07
26978;BME280;56314;48.088;11.642;2023-02-17T07:07:34;96183.69;;;9.54;50.82
26978;BME280;56314;48.088;11.642;2023-02-17T07:10:00;96187.63;;;9.62;50.78
26978;BME280;56314;48.088;11.642;2023-02-17T07:12:26;96189.50;;;9.74;50.21
26978;BME280;56314;48.088;11.642;2023-02-17T07:14:52;96170.56;;;9.83;50.13
26978;BME280;56314;48.088;11.642;2023-02-17T07:17:17;96173.56;;;9.92;50.86
26978;BME280;56314;48.088;11.642;2023-02-17T07:19:42;96169.97;;;9.93;50.63
26978;BME280;56314;48.088;11.642;2023-02-17T07:22:08;96171.31;;;10.00;50.76
26978;BME280;56314;48.088;11.642;2023-02-17T07:24:33;96171.56;;;10.10;50.75
26978;BME280;56314;48.088;11.642;2023-02-17T07:26:59;96181.53;;;10.32;50.12
26978;BME280;56314;48.088;11.642;2023-02-17T07:29:25;96176.47;;;10.43;49.45
26978;BME280;56314;48.088;11.642;2023-02-17T07:31:50;96166.53;;;10.49;49.84
26978;BME280;56314;48.088;11.642;2023-02-17T07:34:16;96178.69;;;10.64;49.12
26978;BME280;56314;48.088;11.642;2023-02-17T07:36:41;96185.66;;;10.78;49.81
26978;BME280;56314;48.088;11.642;2023-02-17T07:39:06;96183.97;;;10.77;49.71
26978;BME280;56314;48.088;11.642;2023-02-17T07:41:32;96182.16;;;10.77;49.62
26978;BME280;56314;48.088;11.642;2023-02-17T07:43:58;96185.66;;;10.78;49.71
26978;BME280;56314;48.088;11.642;2023-02-17T07:46:24;96181.97;;;10.81;49.80
26978;BME280;56314;48.088;11.642;2023-02-17T07:48:50;96184.53;;;10.82;49.53
26978;BME280;56314;48.088;11.642;2023-02-17T07:51:19;96183.78;;;10.80;49.95
26978;BME280;56314;48.088;11.642;2023-02-17T07:53:45;96172.09;;;10.84;49.58
26978;BME280;56314;48.088;11.642;2023-02-17T07:56:16;96186.63;;;10.90;49.69
26978;BME280;56314;48.088;11.642;2023-02-17T07:58:42;96188.41;;;10.89;49.69
26978;BME280;56314;48.088;11.642;2023-02-17T08:01:13;96190.00;;;10.92;49.42
26978;BME280;56314;48.088;11.642;2023-02-17T08:03:39;96189.78;;;10.95;49.86
26978;BME280;56314;48.088;11.642;2023-02-17T08:06:14;96185.59;;;10.92;49.67
26978;BME280;56314;48.088;11.642;2023-02-17T08:08:40;96193.81;;;11.01;49.63
26978;BME280;56314;48.088;11.642;2023-02-17T08:11:25;96198.31;;;10.99;50.04
26978;BME280;56314;48.088;11.642;2023-02-17T08:14:09;96193.16;;;10.97;50.07
26978;BME280;56314;48.088;11.642;2023-02-17T08:16:34;96203.91;;;11.07;50.23
26978;BME280;56314;48.088;11.642;2023-02-17T08:19:00;96205.50;;;11.09;50.75
26978;BME280;56314;48.088;11.642;2023-02-17T08:21:26;96201.44;;;11.18;51.39
26978;BME280;56314;48.088;11.642;2023-02-17T08:23:52;96201.63;;;11.15;51.18
26978;BME280;56314;48.088;11.642;2023-02-17T08:26:18;96194.69;;;11.27;51.10
26978;BME280;56314;48.088;11.642;2023-02-17T08:28:44;96206.38;;;11.23;51.91
26978;BME280;56314;48.088;11.642;2023-02-17T08:31:27;96203.31;;;11.16;52.30
26978;BME280;56314;48.088;11.642;2023-02-17T08:33:54;96197.44;;;11.26;51.72
26978;BME280;56314;48.088;11.642;2023-02-17T08:36:20;96198.69;;;11.33;51.73
26978;BME280;56314;48.088;11.642;2023-02-17T08:38:49;96180.31;;;11.46;51.03
26978;BME280;56314;48.088;11.642;2023-02-17T08:41:16;96191.03;;;11.55;50.48
26978;BME280;56314;48.088;11.642;2023-02-17T08:43:42;96191.78;;;11.70;50.45
26978;BME280;56314;48.088;11.642;2023-02-17T08:46:10;96212.41;;;11.90;50.19
26978;BME280;56314;48.088;11.642;2023-02-17T08:48:35;96199.97;;;12.05;49.81
26978;BME280;56314;48.088;11.642;2023-02-17T08:51:01;96206.19;;;11.91;50.08
26978;BME280;56314;48.088;11.642;2023-02-17T08:53:27;96199.66;;;11.96;50.59
26978;BME280;56314;48.088;11.642;2023-02-17T08:55:53;96194.19;;;11.99;50.44
26978;BME280;56314;48.088;11.642;2023-02-17T08:58:18;96199.94;;;11.92;50.84
26978;BME280;56314;48.088;11.642;2023-02-17T09:00:43;96209.78;;;11.90;51.48
26978;BME280;56314;48.088;11.642;2023-02-17T09:03:09;96201.75;;;11.91;50.85
26978;BME280;56314;48.088;11.642;2023-02-17T09:05:34;96209.78;;;11.90;51.50
26978;BME280;56314;48.088;11.642;2023-02-17T09:08:00;96212.16;;;11.93;50.98
26978;BME280;56314;48.088;11.642;2023-02-17T09:10:26;96218.38;;;11.92;51.28
26978;BME280;56314;48.088;11.642;2023-02-17T09:12:51;96216.06;;;11.87;51.57
26978;BME280;56314;48.088;11.642;2023-02-17T09:15:16;96223.22;;;11.85;51.78
26978;BME280;56314;48.088;11.642;2023-02-17T09:17:42;96224.28;;;11.82;52.94
26978;BME280;56314;48.088;11.642;2023-02-17T09:20:09;96226.28;;;11.79;53.24
26978;BME280;56314;48.088;11.642;2023-02-17T09:22:35;96223.44;;;11.69;53.46
26978;BME280;56314;48.088;11.642;2023-02-17T09:25:00;96221.03;;;11.66;53.47
26978;BME280;56314;48.088;11.642;2023-02-17T09:27:26;96222.50;;;11.57;55.20
26978;BME280;56314;48.088;11.642;2023-02-17T09:29:51;96221.44;;;11.47;56.85
26978;BME280;56314;48.088;11.642;2023-02-17T09:32:16;96221.22;;;11.50;57.09
26978;BME280;56314;48.088;11.642;2023-02-17T09:34:42;96222.91;;;11.38;57.09
26978;BME280;56314;48.088;11.642;2023-02-17T09:37:20;96231.03;;;11.48;57.01
26978;BME280;56314;48.088;11.642;2023-02-17T09:39:47;96224.59;;;11.52;56.36
26978;BME280;56314;48.088;11.642;2023-02-17T09:42:20;96221.66;;;11.57;56.67
26978;BME280;56314;48.088;11.642;2023-02-17T09:44:53;96230.06;;;11.75;55.94
26978;BME280;56314;48.088;11.642;2023-02-17T09:47:23;96225.34;;;11.80;54.81
26978;BME280;56314;48.088;11.642;2023-02-17T09:50:09;96241.97;;;11.80;54.58
26978;BME280;56314;48.088;11.642;2023-02-17T09:52:44;96230.31;;;11.72;54.93
26978;BME280;56314;48.088;11.642;2023-02-17T09:55:20;96234.19;;;11.79;54.78
26978;BME280;56314;48.088;11.642;2023-02-17T09:57:52;96240.50;;;11.89;53.71
26978;BME280;56314;48.088;11.642;2023-02-17T10:00:24;96236.09;;;12.03;53.57
26978;BME280;56314;48.088;11.642;2023-02-17T10:02:58;96228.16;;;12.28;52.25
26978;BME280;56314;48.088;11.642;2023-02-17T10:05:29;96228.22;;;13.26;49.89
26978;BME280;56314;48.088;11.642;2023-02-17T10:08:06;96222.50;;;13.79;48.47
26978;BME280;56314;48.088;11.642;2023-02-17T10:10:42;96227.19;;;14.09;47.53
26978;BME280;56314;48.088;11.642;2023-02-17T10:13:11;96224.91;;;13.82;47.51
26978;BME280;56314;48.088;11.642;2023-02-17T10:15:41;96220.31;;;13.84;48.07
26978;BME280;56314;48.088;11.642;2023-02-17T10:18:29;96220.22;;;13.85;48.21
26978;BME280;56314;48.088;11.642;2023-02-17T10:21:10;96209.63;;;14.42;46.89
26978;BME280;56314;48.088;11.642;2023-02-17T10:23:36;96204.34;;;15.30;45.12
26978;BME280;56314;48.088;11.642;2023-02-17T10:28:59;96199.84;;;15.84;42.74
26978;BME280;56314;48.088;11.642;2023-02-17T10:31:44;96190.84;;;15.54;43.37
26978;BME280;56314;48.088;11.642;2023-02-17T10:36:58;96201.56;;;14.99;44.39
26978;BME280;56314;48.088;11.642;2023-02-17T10:39:48;96210.34;;;14.67;45.54
26978;BME280;56314;48.088;11.642;2023-02-17T10:42:37;96197.97;;;14.34;45.55
26978;BME280;56314;48.088;11.642;2023-02-17T10:45:50;96210.44;;;15.09;44.61
26978;BME280;56314;48.088;11.642;2023-02-17T10:47:58;96191.63;;;15.88;42.90
26978;BME280;56314;48.088;11.642;2023-02-17T10:50:25;96193.81;;;16.13;41.83
26978;BME280;56314;48.088;11.642;2023-02-17T10:52:52;96180.56;;;16.64;40.85
26978;BME280;56314;48.088;11.642;2023-02-17T10:57:56;96169.28;;;16.91;39.68
26978;BME280;56314;48.088;11.642;2023-02-17T11:00:24;96167.16;;;17.64;38.61
26978;BME280;56314;48.088;11.642;2023-02-17T11:02:51;96165.88;;;18.25;36.59
26978;BME280;56314;48.088;11.642;2023-02-17T11:05:31;96164.03;;;17.98;36.80
26978;BME280;56314;48.088;11.642;2023-02-17T11:08:01;96160.38;;;18.55;36.33
26978;BME280;56314;48.088;11.642;2023-02-17T11:10:34;96155.75;;;19.47;34.96
26978;BME280;56314;48.088;11.642;2023-02-17T11:13:01;96155.63;;;20.02;33.77
26978;BME280;56314;48.088;11.642;2023-02-17T11:15:36;96148.00;;;19.54;33.96
26978;BME280;56314;48.088;11.642;2023-02-17T11:18:18;96144.69;;;20.21;33.70
26978;BME280;56314;48.088;11.642;2023-02-17T11:20:45;96153.72;;;19.41;34.03
26978;BME280;56314;48.088;11.642;2023-02-17T11:25:39;96149.00;;;18.07;36.93
26978;BME280;56314;48.088;11.642;2023-02-17T11:28:10;96155.06;;;17.42;37.93
26978;BME280;56314;48.088;11.642;2023-02-17T11:30:39;96173.41;;;17.05;38.21
26978;BME280;56314;48.088;11.642;2023-02-17T11:33:12;96155.59;;;16.76;39.23
26978;BME280;56314;48.088;11.642;2023-02-17T11:38:12;96152.09;;;16.46;39.90
26978;BME280;56314;48.088;11.642;2023-02-17T11:40:38;96167.16;;;16.05;40.67
26978;BME280;56314;48.088;11.642;2023-02-17T11:43:04;96175.16;;;16.25;40.37
26978;BME280;56314;48.088;11.642;2023-02-17T11:45:44;96161.47;;;16.10;41.11
26978;BME280;56314;48.088;11.642;2023-02-17T11:53:50;96153.50;;;16.60;40.32
26978;BME280;56314;48.088;11.642;2023-02-17T11:56:24;96156.72;;;16.13;40.82
26978;BME280;56314;48.088;11.642;2023-02-17T11:59:25;96149.66;;;15.62;42.91
26978;BME280;56314;48.088;11.642;2023-02-17T12:02:25;96144.56;;;15.28;43.57
26978;BME280;56314;48.088;11.642;2023-02-17T12:07:30;96142.44;;;15.21;43.89
26978;BME280;56314;48.088;11.642;2023-02-17T12:21:03;96117.91;;;15.72;43.79
26978;BME280;56314;48.088;11.642;2023-02-17T12:26:22;96121.63;;;15.59;43.74
26978;BME280;56314;48.088;11.642;2023-02-17T12:32:00;96114.38;;;15.51;43.95
26978;BME280;56314;48.088;11.642;2023-02-17T12:34:57;96121.75;;;15.27;44.51
26978;BME280;56314;48.088;11.642;2023-02-17T12:37:32;96112.75;;;14.97;45.29
26978;BME280;56314;48.088;11.642;2023-02-17T12:40:02;96126.22;;;14.93;46.78
26978;BME280;56314;48.088;11.642;2023-02-17T12:42:33;96113.47;;;14.66;47.81
26978;BME280;56314;48.088;11.642;2023-02-17T12:45:05;96120.47;;;14.56;47.94
26978;BME280;56314;48.088;11.642;2023-02-17T12:47:38;96117.31;;;14.62;47.94
26978;BME280;56314;48.088;11.642;2023-02-17T12:50:29;96106.66;;;14.96;46.48
26978;BME280;56314;48.088;11.642;2023-02-17T12:52:59;96119.88;;;14.96;46.13
26978;BME280;56314;48.088;11.642;2023-02-17T12:55:35;96122.44;;;14.86;47.08
26978;BME280;56314;48.088;11.642;2023-02-17T12:58:11;96128.97;;;14.59;48.68
26978;BME280;56314;48.088;11.642;2023-02-17T13:00:49;96134.38;;;14.14;49.08
26978;BME280;56314;48.088;11.642;2023-02-17T13:03:16;96136.91;;;14.04;50.33
26978;BME280;56314;48.088;11.642;2023-02-17T13:06:02;96140.06;;;13.98;50.50
26978;BME280;56314;48.088;11.642;2023-02-17T13:08:55;96130.69;;;13.94;50.31
26978;BME280;56314;48.088;11.642;2023-02-17T13:11:33;96131.41;;;13.84;50.20
26978;BME280;56314;48.088;11.642;2023-02-17T13:16:43;96142.69;;;13.98;50.65
26978;BME280;56314;48.088;11.642;2023-02-17T13:19:09;96122.53;;;13.97;49.91
26978;BME280;56314;48.088;11.642;2023-02-17T13:21:35;96126.94;;;14.08;50.31
26978;BME280;56314;48.088;11.642;2023-02-17T13:24:02;96105.16;;;13.83;50.84
26978;BME280;56314;48.088;11.642;2023-02-17T13:26:31;96120.63;;;13.65;51.27
26978;BME280;56314;48.088;11.642;2023-02-17T13:31:53;96129.75;;;13.72;51.34
26978;BME280;56314;48.088;11.642;2023-02-17T13:34:42;96140.75;;;13.66;51.74
26978;BME280;56314;48.088;11.642;2023-02-17T13:37:24;96140.06;;;13.64;52.19
26978;BME280;56314;48.088;11.642;2023-02-17T13:39:50;96133.34;;;13.60;52.52
26978;BME280;56314;48.088;11.642;2023-02-17T13:42:36;96141.38;;;13.58;52.47
26978;BME280;56314;48.088;11.642;2023-02-17T13:45:33;96128.88;;;13.60;52.17
26978;BME280;56314;48.088;11.642;2023-02-17T13:51:06;96129.88;;;13.82;53.66
26978;BME280;56314;48.088;11.642;2023-02-17T13:56:04;96121.66;;;14.08;51.19
26978;BME280;56314;48.088;11.642;2023-02-17T13:58:35;96125.03;;;13.87;51.44
26978;BME280;56314;48.088;11.642;2023-02-17T14:01:03;96109.56;;;13.82;51.54
26978;BME280;56314;48.088;11.642;2023-02-17T14:03:34;96113.78;;;13.74;52.17
26978;BME280;56314;48.088;11.642;2023-02-17T14:06:06;96107.91;;;13.70;52.27
26978;BME280;56314;48.088;11.642;2023-02-17T14:08:36;96120.72;;;13.63;52.55
26978;BME280;56314;48.088;11.642;2023-02-17T14:13:34;96120.25;;;13.47;52.91
26978;BME280;56314;48.088;11.642;2023-02-17T14:16:01;96120.09;;;13.37;53.17
26978;BME280;56314;48.088;11.642;2023-02-17T14:18:36;96127.41;;;13.33;53.41